logo
Rechercher aéroport 
image banner adimage banner adimage banner ad
image banner ad

BIMM - Melgerdismelar

Situé à Melgerdismelar, Iceland

ICAO - BIMM, IATA -

Données fournies par Airmate  

Information générale

Coordonnées: N65°28'60" W18°10'0"
Élévation : 89 feet MSL.
 
Voir autres Aéroports à Northeast

Données opérationnelles

Special qualification required
Heure actuelle UTC:
Heure actuelle locale:
Météo à : BIAR - Akureyri ( 20 km )
METAR: BIAR 240700Z 13003KT 9999 -RA BKN040 OVC057 07/06 Q1015
TAF: TAF BIAR 240445Z 2406/2506 19012KT 9999 FEW045 TX10/2419Z TN07/2406Z PROB40 TEMPO 2406/2415 4000 RA BKN014 TEMPO 2408/2503 18018G30KT
Voir NOTAMs / SUP AIP / TFR affectant cet aéroport [VIEW]
Fréquences de communication: [VIEW]

Pistes:

Identifiant RWYQFULongueur (ft)Largeur (ft)SurfaceLDA (ft)
04220172GRASS
22220172GRASS

Coordonnées de l'aéroport

Adresse: Melgerdismelar Iceland

Vue satellite de BIMM